JHL3RJ LYTV-LOXZ
Flight info
| Callsign | JHL3RJ |
|---|---|
| Flight time | 1h 12m |
| Altitude | 36000 |
| Route | NIK2P NIK DCT NEPSI DCT LURID DCT KOPRY |
| Aircraft | A20N/M-SDE2E3FGHIRWXY/LB1 |
Departure
| Time | 2026-05-09 17:02 |
|---|---|
| Airport | Tivat Airport (LYTV) |
Arrival
| Time | 2026-05-09 18:14 |
|---|---|
| Airport | Hinterstoisser Air Base (LOXZ) |
| Time | Latitude | Longitude | Altitude | Speed | Heading |
|---|---|---|---|---|---|
| 2026-05-09 16:07 | 42.41111 | 18.71799 | 9 ft | 0 kts | 174° |
| 2026-05-09 16:54 | 42.41109 | 18.71799 | 8 ft | 1 kts | 174° |
| 2026-05-09 16:54 | 42.41073 | 18.71804 | 9 ft | 9 kts | 166° |
| 2026-05-09 16:54 | 42.41028 | 18.71842 | 7 ft | 7 kts | 144° |
| 2026-05-09 16:55 | 42.41000 | 18.71847 | 7 ft | 0 kts | 199° |
| 2026-05-09 16:58 | 42.40967 | 18.71815 | 6 ft | 10 kts | 218° |
| 2026-05-09 16:58 | 42.40895 | 18.71826 | 5 ft | 16 kts | 144° |
| 2026-05-09 16:59 | 42.40771 | 18.71968 | 2 ft | 29 kts | 139° |
| 2026-05-09 16:59 | 42.40597 | 18.72172 | 0 ft | 37 kts | 139° |
| 2026-05-09 16:59 | 42.40388 | 18.72412 | 4 ft | 40 kts | 140° |
| 2026-05-09 16:59 | 42.40185 | 18.72645 | 5 ft | 39 kts | 139° |
| 2026-05-09 17:00 | 42.39983 | 18.72890 | 1 ft | 39 kts | 139° |
| 2026-05-09 17:00 | 42.39785 | 18.73121 | 1 ft | 31 kts | 138° |
| 2026-05-09 17:00 | 42.39650 | 18.73249 | 2 ft | 17 kts | 160° |
| 2026-05-09 17:00 | 42.39632 | 18.73297 | 3 ft | 4 kts | 1° |
| 2026-05-09 17:01 | 42.39647 | 18.73284 | 3 ft | 0 kts | 322° |
| 2026-05-09 17:01 | 42.39755 | 18.73160 | 2 ft | 61 kts | 319° |
| 2026-05-09 17:01 | 42.40264 | 18.72564 | 5 ft | 130 kts | 319° |
| 2026-05-09 17:01 | 42.41052 | 18.71641 | 316 ft | 150 kts | 320° |
| 2026-05-09 17:02 | 42.41769 | 18.70697 | 1122 ft | 144 kts | 292° |
| 2026-05-09 17:02 | 42.41831 | 18.69359 | 1708 ft | 149 kts | 237° |
| 2026-05-09 17:02 | 42.41059 | 18.68324 | 2063 ft | 171 kts | 217° |
| 2026-05-09 17:02 | 42.40065 | 18.67289 | 2376 ft | 187 kts | 220° |
| 2026-05-09 17:03 | 42.39010 | 18.66065 | 2753 ft | 209 kts | 223° |
| 2026-05-09 17:04 | 42.29300 | 18.58945 | 8759 ft | 257 kts | 174° |
| 2026-05-09 17:05 | 42.27506 | 18.59224 | 9689 ft | 265 kts | 171° |
| 2026-05-09 17:05 | 42.25749 | 18.60176 | 10283 ft | 278 kts | 138° |
| 2026-05-09 17:05 | 42.24553 | 18.62227 | 11074 ft | 284 kts | 109° |
| 2026-05-09 17:05 | 42.24219 | 18.64806 | 11826 ft | 287 kts | 80° |
| 2026-05-09 17:06 | 42.24736 | 18.67404 | 12589 ft | 289 kts | 65° |
| 2026-05-09 17:06 | 42.25478 | 18.69954 | 13382 ft | 295 kts | 65° |
| 2026-05-09 17:06 | 42.26214 | 18.72570 | 14134 ft | 301 kts | 66° |
| 2026-05-09 17:06 | 42.26933 | 18.75240 | 14870 ft | 305 kts | 67° |
| 2026-05-09 17:07 | 42.27805 | 18.77885 | 15354 ft | 315 kts | 47° |
| 2026-05-09 17:07 | 42.28800 | 18.79307 | 15607 ft | 318 kts | 30° |
| 2026-05-09 17:07 | 42.31506 | 18.80818 | 16487 ft | 315 kts | 8° |
| 2026-05-09 17:07 | 42.33658 | 18.81408 | 17230 ft | 317 kts | 6° |
| 2026-05-09 17:08 | 42.35844 | 18.81947 | 17956 ft | 321 kts | 6° |
| 2026-05-09 17:08 | 42.40317 | 18.83048 | 18896 ft | 345 kts | 6° |
| 2026-05-09 17:08 | 42.42755 | 18.83647 | 18985 ft | 367 kts | 6° |
| 2026-05-09 17:09 | 42.45331 | 18.84289 | 19118 ft | 385 kts | 6° |
| 2026-05-09 17:09 | 42.48019 | 18.84964 | 19303 ft | 400 kts | 6° |
| 2026-05-09 17:09 | 42.50802 | 18.85661 | 19506 ft | 413 kts | 7° |
| 2026-05-09 17:09 | 42.53624 | 18.86374 | 20164 ft | 412 kts | 6° |
| 2026-05-09 17:10 | 42.56459 | 18.87090 | 20696 ft | 415 kts | 6° |
| 2026-05-09 17:10 | 42.59306 | 18.87805 | 21269 ft | 417 kts | 6° |
| 2026-05-09 17:10 | 42.62164 | 18.88520 | 21831 ft | 419 kts | 6° |
| 2026-05-09 17:10 | 42.64993 | 18.89228 | 22395 ft | 421 kts | 6° |
| 2026-05-09 17:11 | 42.67878 | 18.89954 | 22958 ft | 423 kts | 5° |
| 2026-05-09 17:11 | 42.70774 | 18.90686 | 23502 ft | 424 kts | 5° |
| 2026-05-09 17:11 | 42.73680 | 18.91417 | 23987 ft | 426 kts | 5° |
| 2026-05-09 17:11 | 42.76616 | 18.91951 | 24280 ft | 424 kts | 355° |
| 2026-05-09 17:12 | 42.79544 | 18.91742 | 24650 ft | 420 kts | 347° |
| 2026-05-09 17:12 | 42.82419 | 18.91048 | 24988 ft | 419 kts | 343° |
| 2026-05-09 17:12 | 42.85257 | 18.90143 | 25423 ft | 418 kts | 341° |
| 2026-05-09 17:12 | 42.88087 | 18.89191 | 25699 ft | 420 kts | 341° |
| 2026-05-09 17:13 | 42.90882 | 18.88263 | 26159 ft | 418 kts | 341° |
| 2026-05-09 17:13 | 42.93712 | 18.87358 | 26519 ft | 418 kts | 342° |
| 2026-05-09 17:13 | 42.96541 | 18.86475 | 26976 ft | 416 kts | 342° |
| 2026-05-09 17:13 | 42.99363 | 18.85595 | 27388 ft | 415 kts | 341° |
| 2026-05-09 17:14 | 43.02174 | 18.84713 | 27800 ft | 414 kts | 341° |
| 2026-05-09 17:14 | 43.04970 | 18.83829 | 28271 ft | 412 kts | 341° |
| 2026-05-09 17:14 | 43.07754 | 18.82947 | 28750 ft | 410 kts | 340° |
| 2026-05-09 17:14 | 43.10531 | 18.82067 | 29208 ft | 408 kts | 340° |
| 2026-05-09 17:15 | 43.13296 | 18.81192 | 29652 ft | 407 kts | 340° |
| 2026-05-09 17:15 | 43.16008 | 18.80328 | 30090 ft | 405 kts | 340° |
| 2026-05-09 17:15 | 43.18746 | 18.79463 | 30531 ft | 402 kts | 340° |
| 2026-05-09 17:15 | 43.21464 | 18.78603 | 30879 ft | 401 kts | 340° |
| 2026-05-09 17:16 | 43.24184 | 18.77744 | 31195 ft | 402 kts | 340° |
| 2026-05-09 17:17 | 43.41405 | 18.67455 | 33892 ft | 380 kts | 325° |
| 2026-05-09 17:18 | 43.43738 | 18.65783 | 34358 ft | 377 kts | 325° |
| 2026-05-09 17:18 | 43.46070 | 18.64111 | 34610 ft | 379 kts | 325° |
| 2026-05-09 17:18 | 43.48396 | 18.62441 | 35021 ft | 376 kts | 325° |
| 2026-05-09 17:18 | 43.50720 | 18.60766 | 35226 ft | 378 kts | 325° |
| 2026-05-09 17:19 | 43.53055 | 18.59083 | 35492 ft | 379 kts | 325° |
| 2026-05-09 17:19 | 43.55394 | 18.57400 | 35720 ft | 380 kts | 326° |
| 2026-05-09 17:19 | 43.57729 | 18.55719 | 36049 ft | 374 kts | 325° |
| 2026-05-09 17:19 | 43.60042 | 18.54043 | 36148 ft | 378 kts | 325° |
| 2026-05-09 17:20 | 43.64758 | 18.50631 | 36131 ft | 392 kts | 326° |
| 2026-05-09 17:20 | 43.69642 | 18.47105 | 36145 ft | 400 kts | 326° |
| 2026-05-09 17:21 | 43.74625 | 18.43488 | 36137 ft | 409 kts | 326° |
| 2026-05-09 17:21 | 43.79701 | 18.39802 | 36136 ft | 413 kts | 326° |
| 2026-05-09 17:22 | 43.84784 | 18.36113 | 36135 ft | 413 kts | 326° |
| 2026-05-09 17:22 | 43.89830 | 18.32427 | 36163 ft | 412 kts | 326° |
| 2026-05-09 17:23 | 43.94886 | 18.28731 | 36161 ft | 412 kts | 326° |
| 2026-05-09 17:23 | 43.99950 | 18.25022 | 36158 ft | 411 kts | 326° |
| 2026-05-09 17:25 | 44.15101 | 18.13890 | 36178 ft | 410 kts | 325° |
| 2026-05-09 17:25 | 44.20156 | 18.10158 | 36167 ft | 413 kts | 325° |
| 2026-05-09 17:26 | 44.25225 | 18.06415 | 36161 ft | 412 kts | 325° |
| 2026-05-09 17:26 | 44.30258 | 18.02686 | 36158 ft | 412 kts | 325° |
| 2026-05-09 17:27 | 44.35322 | 17.98926 | 36178 ft | 412 kts | 325° |
| 2026-05-09 17:27 | 44.40378 | 17.95166 | 36175 ft | 412 kts | 325° |
| 2026-05-09 17:28 | 44.45333 | 17.91489 | 36087 ft | 384 kts | 324° |
| 2026-05-09 17:28 | 44.49958 | 17.88028 | 36080 ft | 382 kts | 324° |
| 2026-05-09 17:29 | 44.54713 | 17.84455 | 36062 ft | 394 kts | 324° |
| 2026-05-09 17:29 | 44.59576 | 17.80818 | 36087 ft | 403 kts | 325° |
| 2026-05-09 17:30 | 44.64570 | 17.77068 | 36078 ft | 410 kts | 325° |
| 2026-05-09 17:30 | 44.69631 | 17.73263 | 36073 ft | 413 kts | 325° |
| 2026-05-09 17:31 | 44.74695 | 17.69450 | 36068 ft | 413 kts | 325° |
| 2026-05-09 17:32 | 44.87339 | 17.59885 | 36074 ft | 414 kts | 324° |
| 2026-05-09 17:33 | 44.92410 | 17.56035 | 36072 ft | 414 kts | 324° |
| 2026-05-09 17:33 | 44.97479 | 17.52175 | 36070 ft | 414 kts | 324° |
| 2026-05-09 17:34 | 45.02514 | 17.48339 | 36087 ft | 414 kts | 324° |
| 2026-05-09 17:35 | 45.18266 | 17.37932 | 36101 ft | 428 kts | 337° |
| 2026-05-09 17:35 | 45.21163 | 17.36878 | 36103 ft | 429 kts | 337° |
| 2026-05-09 17:36 | 45.26893 | 17.34753 | 36115 ft | 429 kts | 336° |
| 2026-05-09 17:36 | 45.32639 | 17.32511 | 36119 ft | 428 kts | 336° |
| 2026-05-09 17:37 | 45.38388 | 17.30261 | 36075 ft | 429 kts | 336° |
| 2026-05-09 17:37 | 45.44145 | 17.28015 | 36068 ft | 430 kts | 336° |
| 2026-05-09 17:38 | 45.49884 | 17.25769 | 36069 ft | 429 kts | 336° |
| 2026-05-09 17:39 | 45.58519 | 17.22374 | 36066 ft | 429 kts | 336° |
| 2026-05-09 17:39 | 45.64276 | 17.20100 | 36068 ft | 430 kts | 336° |
| 2026-05-09 17:40 | 45.70044 | 17.17829 | 36087 ft | 430 kts | 336° |
| 2026-05-09 17:40 | 45.75768 | 17.15570 | 36090 ft | 430 kts | 336° |
| 2026-05-09 17:41 | 45.81533 | 17.13278 | 36092 ft | 431 kts | 336° |
| 2026-05-09 17:41 | 45.87310 | 17.10986 | 36088 ft | 430 kts | 336° |
| 2026-05-09 17:42 | 45.93095 | 17.08677 | 36123 ft | 433 kts | 336° |
| 2026-05-09 17:42 | 45.98891 | 17.06371 | 36115 ft | 433 kts | 336° |
| 2026-05-09 17:43 | 46.04653 | 17.04067 | 36124 ft | 432 kts | 336° |
| 2026-05-09 17:43 | 46.10449 | 17.01738 | 36054 ft | 432 kts | 336° |
| 2026-05-09 17:44 | 46.16260 | 16.99391 | 36080 ft | 436 kts | 337° |
| 2026-05-09 17:44 | 46.21928 | 16.96814 | 36002 ft | 403 kts | 325° |
| 2026-05-09 17:44 | 46.24202 | 16.94703 | 35664 ft | 380 kts | 314° |
| 2026-05-09 17:45 | 46.26169 | 16.92163 | 35391 ft | 389 kts | 309° |
| 2026-05-09 17:45 | 46.28040 | 16.89319 | 35144 ft | 391 kts | 307° |
| 2026-05-09 17:45 | 46.29820 | 16.86367 | 34907 ft | 390 kts | 306° |
| 2026-05-09 17:45 | 46.31562 | 16.83370 | 34672 ft | 389 kts | 305° |
| 2026-05-09 17:46 | 46.33292 | 16.80369 | 34400 ft | 388 kts | 305° |
| 2026-05-09 17:46 | 46.35007 | 16.77398 | 33875 ft | 380 kts | 305° |
| 2026-05-09 17:46 | 46.36693 | 16.74482 | 33300 ft | 377 kts | 305° |
| 2026-05-09 17:46 | 46.38380 | 16.71552 | 32732 ft | 380 kts | 306° |
| 2026-05-09 17:47 | 46.40094 | 16.68575 | 32197 ft | 384 kts | 306° |
| 2026-05-09 17:47 | 46.41769 | 16.65690 | 31614 ft | 374 kts | 306° |
| 2026-05-09 17:47 | 46.43423 | 16.62845 | 31049 ft | 364 kts | 306° |
| 2026-05-09 17:47 | 46.45035 | 16.60058 | 30326 ft | 359 kts | 307° |
| 2026-05-09 17:48 | 46.46639 | 16.57265 | 29579 ft | 364 kts | 307° |
| 2026-05-09 17:48 | 46.48300 | 16.54361 | 29269 ft | 382 kts | 307° |
| 2026-05-09 17:48 | 46.50000 | 16.51398 | 28906 ft | 382 kts | 307° |
| 2026-05-09 17:48 | 46.51704 | 16.48440 | 28531 ft | 381 kts | 307° |
| 2026-05-09 17:49 | 46.53397 | 16.45495 | 28107 ft | 379 kts | 307° |
| 2026-05-09 17:49 | 46.55082 | 16.42555 | 27688 ft | 378 kts | 307° |
| 2026-05-09 17:49 | 46.56738 | 16.39659 | 27266 ft | 377 kts | 307° |
| 2026-05-09 17:49 | 46.58410 | 16.36726 | 26846 ft | 377 kts | 307° |
| 2026-05-09 17:50 | 46.60084 | 16.33788 | 26431 ft | 377 kts | 307° |
| 2026-05-09 17:50 | 46.63436 | 16.27908 | 25601 ft | 378 kts | 307° |
| 2026-05-09 17:50 | 46.65112 | 16.24966 | 25181 ft | 377 kts | 307° |
| 2026-05-09 17:51 | 46.66785 | 16.22023 | 24761 ft | 377 kts | 307° |
| 2026-05-09 17:51 | 46.68456 | 16.19080 | 24344 ft | 377 kts | 308° |
| 2026-05-09 17:51 | 46.70124 | 16.16137 | 23912 ft | 377 kts | 308° |
| 2026-05-09 17:51 | 46.71780 | 16.13213 | 23453 ft | 370 kts | 308° |
| 2026-05-09 17:52 | 46.73395 | 16.10367 | 22945 ft | 359 kts | 308° |
| 2026-05-09 17:52 | 46.74940 | 16.07639 | 22458 ft | 348 kts | 308° |
| 2026-05-09 17:52 | 46.76494 | 16.04886 | 21768 ft | 358 kts | 307° |
| 2026-05-09 17:52 | 46.78109 | 16.02012 | 21482 ft | 369 kts | 308° |
| 2026-05-09 17:53 | 46.79740 | 15.99115 | 21122 ft | 369 kts | 308° |
| 2026-05-09 17:53 | 46.81366 | 15.96232 | 20688 ft | 366 kts | 308° |
| 2026-05-09 17:53 | 46.82978 | 15.93372 | 20220 ft | 363 kts | 308° |
| 2026-05-09 17:53 | 46.84578 | 15.90529 | 19770 ft | 361 kts | 308° |
| 2026-05-09 17:54 | 46.86165 | 15.87702 | 19322 ft | 359 kts | 308° |
| 2026-05-09 17:54 | 46.87741 | 15.84890 | 18880 ft | 356 kts | 308° |
| 2026-05-09 17:54 | 46.89301 | 15.82102 | 18443 ft | 352 kts | 307° |
| 2026-05-09 17:54 | 46.90796 | 15.79432 | 18212 ft | 334 kts | 307° |
| 2026-05-09 17:55 | 46.92227 | 15.76879 | 18088 ft | 314 kts | 308° |
| 2026-05-09 17:55 | 46.93560 | 15.74496 | 17765 ft | 294 kts | 307° |
| 2026-05-09 17:55 | 46.94830 | 15.72216 | 17289 ft | 286 kts | 307° |
| 2026-05-09 17:55 | 46.96071 | 15.69982 | 16930 ft | 280 kts | 307° |
| 2026-05-09 17:56 | 46.97298 | 15.67781 | 16270 ft | 278 kts | 307° |
| 2026-05-09 17:56 | 46.98519 | 15.65588 | 15736 ft | 278 kts | 307° |
| 2026-05-09 17:56 | 46.99723 | 15.63424 | 15343 ft | 277 kts | 307° |
| 2026-05-09 17:57 | 47.02149 | 15.59061 | 14548 ft | 275 kts | 307° |
| 2026-05-09 17:57 | 47.03355 | 15.56887 | 14168 ft | 274 kts | 307° |
| 2026-05-09 17:57 | 47.04553 | 15.54726 | 13777 ft | 273 kts | 307° |
| 2026-05-09 17:57 | 47.05742 | 15.52580 | 13137 ft | 271 kts | 307° |
| 2026-05-09 17:58 | 47.06929 | 15.50436 | 12721 ft | 270 kts | 306° |
| 2026-05-09 17:58 | 47.08111 | 15.48299 | 12312 ft | 269 kts | 306° |
| 2026-05-09 17:58 | 47.09289 | 15.46168 | 11932 ft | 268 kts | 306° |
| 2026-05-09 17:58 | 47.10463 | 15.44043 | 11569 ft | 267 kts | 307° |
| 2026-05-09 17:59 | 47.11578 | 15.42027 | 11467 ft | 245 kts | 306° |
| 2026-05-09 17:59 | 47.12598 | 15.40184 | 11300 ft | 223 kts | 307° |
| 2026-05-09 17:59 | 47.13553 | 15.38448 | 10968 ft | 215 kts | 307° |
| 2026-05-09 17:59 | 47.14482 | 15.36755 | 10710 ft | 211 kts | 307° |
| 2026-05-09 18:00 | 47.15395 | 15.35099 | 10445 ft | 207 kts | 307° |
| 2026-05-09 18:00 | 47.16302 | 15.33448 | 10228 ft | 211 kts | 307° |
| 2026-05-09 18:00 | 47.17257 | 15.31709 | 10361 ft | 222 kts | 307° |
| 2026-05-09 18:00 | 47.18206 | 15.29984 | 10541 ft | 212 kts | 307° |
| 2026-05-09 18:01 | 47.19113 | 15.28333 | 10316 ft | 213 kts | 307° |
| 2026-05-09 18:01 | 47.20075 | 15.26579 | 9990 ft | 223 kts | 307° |
| 2026-05-09 18:01 | 47.21028 | 15.24837 | 9819 ft | 217 kts | 307° |
| 2026-05-09 18:01 | 47.21991 | 15.23085 | 9529 ft | 222 kts | 307° |
| 2026-05-09 18:02 | 47.22963 | 15.21311 | 9151 ft | 223 kts | 307° |
| 2026-05-09 18:02 | 47.23982 | 15.19595 | 8761 ft | 224 kts | 322° |
| 2026-05-09 18:02 | 47.25346 | 15.18516 | 8492 ft | 218 kts | 334° |
| 2026-05-09 18:02 | 47.26637 | 15.17651 | 8324 ft | 200 kts | 333° |
| 2026-05-09 18:03 | 47.27868 | 15.16824 | 8192 ft | 185 kts | 333° |
| 2026-05-09 18:03 | 47.29016 | 15.16055 | 8173 ft | 179 kts | 333° |
| 2026-05-09 18:03 | 47.30139 | 15.15293 | 8148 ft | 179 kts | 327° |
| 2026-05-09 18:03 | 47.30889 | 15.13934 | 8133 ft | 179 kts | 282° |
| 2026-05-09 18:04 | 47.30889 | 15.12097 | 8054 ft | 177 kts | 256° |
| 2026-05-09 18:04 | 47.30462 | 15.10412 | 8045 ft | 175 kts | 246° |
| 2026-05-09 18:04 | 47.29946 | 15.08782 | 8036 ft | 176 kts | 246° |
| 2026-05-09 18:04 | 47.29438 | 15.07122 | 7817 ft | 178 kts | 246° |
| 2026-05-09 18:05 | 47.28928 | 15.05462 | 7550 ft | 177 kts | 245° |
| 2026-05-09 18:05 | 47.28421 | 15.03814 | 7291 ft | 176 kts | 245° |
| 2026-05-09 18:05 | 47.27925 | 15.02207 | 7017 ft | 175 kts | 245° |
| 2026-05-09 18:05 | 47.27426 | 15.00578 | 6708 ft | 174 kts | 244° |
| 2026-05-09 18:06 | 47.26930 | 14.98960 | 6395 ft | 173 kts | 245° |
| 2026-05-09 18:06 | 47.26437 | 14.97357 | 6104 ft | 170 kts | 244° |
| 2026-05-09 18:06 | 47.25948 | 14.95765 | 5842 ft | 171 kts | 245° |
| 2026-05-09 18:06 | 47.25458 | 14.94171 | 5583 ft | 170 kts | 244° |
| 2026-05-09 18:07 | 47.24975 | 14.92602 | 5302 ft | 168 kts | 244° |
| 2026-05-09 18:07 | 47.24489 | 14.91022 | 5007 ft | 172 kts | 244° |
| 2026-05-09 18:07 | 47.23997 | 14.89420 | 4714 ft | 172 kts | 245° |
| 2026-05-09 18:07 | 47.23503 | 14.87817 | 4377 ft | 172 kts | 245° |
| 2026-05-09 18:08 | 47.23020 | 14.86246 | 4100 ft | 169 kts | 245° |
| 2026-05-09 18:08 | 47.22541 | 14.84717 | 3947 ft | 161 kts | 237° |
| 2026-05-09 18:08 | 47.21723 | 14.83668 | 3912 ft | 160 kts | 214° |
| 2026-05-09 18:08 | 47.20830 | 14.82703 | 3881 ft | 161 kts | 213° |
| 2026-05-09 18:09 | 47.19936 | 14.81726 | 3860 ft | 161 kts | 226° |
| 2026-05-09 18:09 | 47.19498 | 14.80267 | 3874 ft | 159 kts | 256° |
| 2026-05-09 18:09 | 47.19252 | 14.78680 | 3859 ft | 159 kts | 259° |
| 2026-05-09 18:09 | 47.19019 | 14.77069 | 3833 ft | 160 kts | 258° |
| 2026-05-09 18:10 | 47.18780 | 14.75475 | 3829 ft | 159 kts | 258° |
| 2026-05-09 18:10 | 47.18704 | 14.74960 | 3861 ft | 159 kts | 258° |
| 2026-05-09 18:10 | 47.18311 | 14.72304 | 3845 ft | 160 kts | 258° |
| 2026-05-09 18:10 | 47.18079 | 14.70733 | 3842 ft | 155 kts | 258° |
| 2026-05-09 18:11 | 47.17850 | 14.69192 | 3849 ft | 154 kts | 259° |
| 2026-05-09 18:11 | 47.17629 | 14.67658 | 3849 ft | 152 kts | 258° |
| 2026-05-09 18:11 | 47.17643 | 14.66167 | 3624 ft | 139 kts | 302° |
| 2026-05-09 18:11 | 47.18358 | 14.65148 | 3307 ft | 154 kts | 352° |
| 2026-05-09 18:12 | 47.19224 | 14.65505 | 3173 ft | 131 kts | 65° |
| 2026-05-09 18:12 | 47.19466 | 14.66877 | 2909 ft | 146 kts | 83° |
| 2026-05-09 18:12 | 47.19568 | 14.68335 | 2775 ft | 146 kts | 83° |
| 2026-05-09 18:12 | 47.19722 | 14.69793 | 2622 ft | 143 kts | 78° |
| 2026-05-09 18:13 | 47.19895 | 14.71232 | 2470 ft | 143 kts | 80° |
| 2026-05-09 18:13 | 47.20061 | 14.72645 | 2308 ft | 141 kts | 82° |
| 2026-05-09 18:13 | 47.20207 | 14.73925 | 2241 ft | 105 kts | 81° |
| 2026-05-09 18:13 | 47.20299 | 14.74761 | 2228 ft | 71 kts | 78° |
| 2026-05-09 18:14 | 47.20382 | 14.75440 | 2213 ft | 63 kts | 80° |
| 2026-05-09 18:14 | 47.20429 | 14.75908 | 2206 ft | 27 kts | 89° |
| 2026-05-09 18:14 | 47.20339 | 14.76002 | 2204 ft | 12 kts | 172° |
| 2026-05-09 18:14 | 47.20273 | 14.75963 | 2204 ft | 10 kts | 235° |
| 2026-05-09 18:15 | 47.20258 | 14.75879 | 2205 ft | 6 kts | 258° |
| 2026-05-09 18:15 | 47.20244 | 14.75850 | 2205 ft | 7 kts | 225° |
| 2026-05-09 18:15 | 47.20212 | 14.75838 | 2206 ft | 3 kts | 172° |
| 2026-05-09 18:15 | 47.20209 | 14.75839 | 2206 ft | 0 kts | 167° |
| 2026-05-09 18:16 | 47.20208 | 14.75840 | 2206 ft | 1 kts | 158° |
| 2026-05-09 18:16 | 47.20202 | 14.75865 | 2206 ft | 4 kts | 112° |
| 2026-05-09 18:16 | 47.20197 | 14.75884 | 2205 ft | 2 kts | 113° |
| 2026-05-09 18:16 | 47.20195 | 14.75888 | 2205 ft | 0 kts | 113° |